Abraham, West Virginia
Current Conditions -  °F | °C
As of 5:16 AM on Wednesday 26 Nov 2014 (Local Time) from KBKW Reporting Station
Light Rain Light Rain  
Wind Chill: 30°   Ceiling: 2400
Heat Index: 36°   Visibility: 10mi
Dew Point: 32°   Wind: 7mph
Humidity: 86%   Direction: 120°ESE
Pressure: 29.96"   Gusts: NA
Location:  37.6906°N, 81.1704°W
Report Text: KBKW 261016Z AUTO 12006KT 10SM -RA SCT011 OVC024 02/00 A2996 RMK AO2 RAB0952 P0001 T00220000
Loading
Personal Weather Stations






























Interactive Weather Map New forecast layout! Learn more

10-Day Weather Forecast

Advertisements
Track Severe Weather on mobile